Time;durP1;ratioP1;P1;durP2;ratioP2;P2;SDS_P1;SDS_P2;PMS_P1;PMS_P2;Temp;Humidity;BMP_temperature;BMP_pressure;BME280_temperature;BME280_humidity;BME280_pressure;Samples;Min_cycle;Max_cycle;Signal;HPM_P1;HPM_P2
2020/12/30 00:01:25;;;;;;;;;;;3.70;99.90;;;;;;5104114;28;19927;-86
2020/12/30 00:03:51;;;;;;;;;;;3.70;99.90;;;;;;5097593;28;19998;-86
2020/12/30 00:06:17;;;;;;;;;;;3.70;99.90;;;;;;5096861;28;20018;-86
2020/12/30 00:08:44;;;;;;;;;;;3.70;99.90;;;;;;5115411;28;19927;-87
2020/12/30 00:11:09;;;;;;;;;;;3.80;99.90;;;;;;5096507;28;19969;-86
2020/12/30 00:13:36;;;;;;;;;;;3.80;99.90;;;;;;5115155;28;19920;-86
2020/12/30 00:16:02;;;;;;;;;;;3.80;99.90;;;;;;5097347;28;19920;-88
2020/12/30 00:18:28;;;;;;;;;;;3.80;99.90;;;;;;5114212;28;19920;-86
2020/12/30 00:20:53;;;;;;;;;;;3.90;99.90;;;;;;5090638;28;20289;-86
2020/12/30 00:23:19;;;;;;;;;;;3.80;99.90;;;;;;5104860;28;20433;-86
2020/12/30 00:25:45;;;;;;;;;;;3.80;99.90;;;;;;5080266;28;19941;-86
2020/12/30 00:28:10;;;;;;;;;;;3.80;99.90;;;;;;5067654;28;20356;-89
2020/12/30 00:30:36;;;;;;;;;;;3.80;99.90;;;;;;5076401;28;19920;-86
2020/12/30 00:33:02;;;;;;;;;;;3.80;99.90;;;;;;5095980;28;19943;-89
2020/12/30 00:35:27;;;;;;;;;;;3.90;99.90;;;;;;5096545;28;19919;-86
2020/12/30 00:37:53;;;;;;;;;;;3.90;99.90;;;;;;5097110;28;19920;-87
2020/12/30 00:40:19;;;;;;;;;;;4.00;99.90;;;;;;5095562;28;19923;-86
2020/12/30 00:42:44;;;;;;;;;;;3.90;99.90;;;;;;5079674;28;19927;-86
2020/12/30 00:45:10;;;;;;;;;;;3.90;99.90;;;;;;5114029;28;20011;-85
2020/12/30 00:47:36;;;;;;;;;;;4.00;99.90;;;;;;5114619;28;19927;-87
2020/12/30 00:50:03;;;;;;;;;;;3.90;99.90;;;;;;5096680;28;20753;-85
2020/12/30 00:52:29;;;;;;;;;;;3.90;99.90;;;;;;5095634;28;19927;-86
2020/12/30 00:54:55;;;;;;;;;;;3.80;99.90;;;;;;5075868;28;20285;-86
2020/12/30 00:57:21;;;;;;;;;;;3.80;99.90;;;;;;5092114;28;19926;-90
2020/12/30 00:59:47;;;;;;;;;;;3.80;99.90;;;;;;5092437;28;19974;-86
2020/12/30 01:02:12;;;;;;;;;;;3.80;99.90;;;;;;5093301;28;19920;-84
2020/12/30 01:04:38;;;;;;;;;;;3.70;99.90;;;;;;5096305;28;19923;-86
2020/12/30 01:07:04;;;;;;;;;;;3.70;99.90;;;;;;5114268;28;20378;-86
2020/12/30 01:09:29;;;;;;;;;;;3.60;99.90;;;;;;5113718;28;19927;-86
2020/12/30 01:11:59;;;;;;;;;;;3.60;99.90;;;;;;5096308;28;19920;-86
2020/12/30 01:14:28;;;;;;;;;;;3.60;99.90;;;;;;5095511;28;19915;-86
2020/12/30 01:16:53;;;;;;;;;;;3.50;99.90;;;;;;5096225;28;20229;-86
2020/12/30 01:19:20;;;;;;;;;;;3.50;99.90;;;;;;5113585;28;19964;-86
2020/12/30 01:21:45;;;;;;;;;;;3.50;99.90;;;;;;5096203;28;19920;-86
2020/12/30 01:24:11;;;;;;;;;;;3.50;99.90;;;;;;5095354;28;19965;-89
2020/12/30 01:26:37;;;;;;;;;;;3.60;99.90;;;;;;5096754;28;19924;-86
2020/12/30 01:29:04;;;;;;;;;;;3.60;99.90;;;;;;5095501;28;20296;-85
2020/12/30 01:31:30;;;;;;;;;;;3.60;99.90;;;;;;5113210;28;19951;-86
2020/12/30 01:33:56;;;;;;;;;;;3.60;99.90;;;;;;5083805;28;19920;-85
2020/12/30 01:36:22;;;;;;;;;;;3.60;99.90;;;;;;5092737;28;19923;-85
2020/12/30 01:38:48;;;;;;;;;;;3.60;99.90;;;;;;5041987;28;20346;-86
2020/12/30 01:41:14;;;;;;;;;;;3.50;99.90;;;;;;5074463;28;19934;-87
2020/12/30 01:43:40;;;;;;;;;;;3.50;99.90;;;;;;5081249;28;19923;-86
2020/12/30 01:46:06;;;;;;;;;;;3.50;99.90;;;;;;5095428;28;19920;-85
2020/12/30 01:48:33;;;;;;;;;;;3.50;99.90;;;;;;5095046;28;20000;-86
2020/12/30 01:50:59;;;;;;;;;;;3.40;99.90;;;;;;5094540;28;20026;-86
2020/12/30 01:53:25;;;;;;;;;;;3.40;99.90;;;;;;5094478;28;20419;-87
2020/12/30 01:55:52;;;;;;;;;;;3.30;99.90;;;;;;5094790;28;20361;-85
2020/12/30 01:58:18;;;;;;;;;;;3.30;99.90;;;;;;5112235;28;19920;-85
2020/12/30 02:00:47;;;;;;;;;;;3.30;99.90;;;;;;5095073;28;20374;-86
2020/12/30 02:03:13;;;;;;;;;;;3.30;99.90;;;;;;5094749;28;19947;-88
2020/12/30 02:05:39;;;;;;;;;;;3.20;99.90;;;;;;5110877;28;19962;-85
2020/12/30 02:08:05;;;;;;;;;;;3.20;99.90;;;;;;5082802;28;19970;-85
2020/12/30 02:10:31;;;;;;;;;;;3.20;99.90;;;;;;5085148;28;19969;-86
2020/12/30 02:12:57;;;;;;;;;;;3.20;99.90;;;;;;5081832;28;19923;-84
2020/12/30 02:15:23;;;;;;;;;;;3.10;99.90;;;;;;5106801;28;19923;-86
2020/12/30 02:17:48;;;;;;;;;;;3.00;99.90;;;;;;5080397;28;19969;-85
2020/12/30 02:20:14;;;;;;;;;;;3.00;99.90;;;;;;5092468;28;19970;-89
2020/12/30 02:22:41;;;;;;;;;;;3.00;99.90;;;;;;5089436;27;19923;-86
2020/12/30 02:25:07;;;;;;;;;;;3.00;99.90;;;;;;5121967;27;19919;-88
2020/12/30 02:27:32;;;;;;;;;;;3.00;99.90;;;;;;5078533;27;19916;-85
2020/12/30 02:29:58;;;;;;;;;;;3.00;99.90;;;;;;5133557;27;20014;-85
2020/12/30 02:32:24;;;;;;;;;;;3.00;99.90;;;;;;5111151;28;19919;-86
2020/12/30 02:34:49;;;;;;;;;;;3.00;99.90;;;;;;5096435;28;19931;-84
2020/12/30 02:37:15;;;;;;;;;;;3.00;99.90;;;;;;5053904;28;19924;-88
2020/12/30 02:39:41;;;;;;;;;;;3.10;99.90;;;;;;5070537;28;20014;-85
2020/12/30 02:42:06;;;;;;;;;;;3.10;99.90;;;;;;5070695;28;19931;-86
2020/12/30 02:44:32;;;;;;;;;;;3.10;99.90;;;;;;5079220;28;19920;-85
2020/12/30 02:46:58;;;;;;;;;;;3.10;99.90;;;;;;5092035;28;19927;-85
2020/12/30 02:49:23;;;;;;;;;;;3.20;99.90;;;;;;5090590;28;19920;-85
2020/12/30 02:51:49;;;;;;;;;;;3.20;99.90;;;;;;5092117;28;19920;-86
2020/12/30 02:54:15;;;;;;;;;;;3.20;99.90;;;;;;5090427;28;19920;-90
2020/12/30 02:56:41;;;;;;;;;;;3.30;99.90;;;;;;5091130;28;19926;-85
2020/12/30 02:59:06;;;;;;;;;;;3.30;99.90;;;;;;5073921;28;19931;-85
2020/12/30 03:01:32;;;;;;;;;;;3.30;99.90;;;;;;5089759;28;19919;-84
2020/12/30 03:03:57;;;;;;;;;;;3.30;99.90;;;;;;5090808;28;19941;-84
2020/12/30 03:06:24;;;;;;;;;;;3.30;99.90;;;;;;5073414;28;19927;-85
2020/12/30 03:08:50;;;;;;;;;;;3.40;99.90;;;;;;5090678;28;19943;-84
2020/12/30 03:11:16;;;;;;;;;;;3.40;99.90;;;;;;5078326;28;19970;-87
2020/12/30 03:13:41;;;;;;;;;;;3.40;99.90;;;;;;5069879;28;19920;-84
2020/12/30 03:16:07;;;;;;;;;;;3.40;99.90;;;;;;5071655;28;20246;-85
2020/12/30 03:18:33;;;;;;;;;;;3.40;99.90;;;;;;5070058;28;20250;-84
2020/12/30 03:20:59;;;;;;;;;;;3.50;99.90;;;;;;5078874;28;19931;-86
2020/12/30 03:23:25;;;;;;;;;;;3.50;99.90;;;;;;5090733;28;20436;-85
2020/12/30 03:25:50;;;;;;;;;;;3.40;99.90;;;;;;5091679;28;20018;-88
2020/12/30 03:28:16;;;;;;;;;;;3.50;99.90;;;;;;5090273;28;20022;-90
2020/12/30 03:30:42;;;;;;;;;;;3.40;99.90;;;;;;5087533;28;19928;-85
2020/12/30 03:33:07;;;;;;;;;;;3.40;99.90;;;;;;5070470;28;20330;-85
2020/12/30 03:35:33;;;;;;;;;;;3.40;99.90;;;;;;5053410;28;20372;-89
2020/12/30 03:37:59;;;;;;;;;;;3.40;99.90;;;;;;5053721;28;19924;-88
2020/12/30 03:40:24;;;;;;;;;;;3.40;99.90;;;;;;5071163;28;20377;-85
2020/12/30 03:42:50;;;;;;;;;;;3.40;99.90;;;;;;5087871;28;19935;-85
2020/12/30 03:45:16;;;;;;;;;;;3.30;99.90;;;;;;5090881;28;19978;-85
2020/12/30 03:47:41;;;;;;;;;;;3.30;99.90;;;;;;5091174;28;19924;-86
2020/12/30 03:50:07;;;;;;;;;;;3.20;99.90;;;;;;5090591;28;20373;-85
2020/12/30 03:52:34;;;;;;;;;;;3.20;99.90;;;;;;5077548;28;20372;-86
2020/12/30 03:54:59;;;;;;;;;;;3.10;99.90;;;;;;5071317;28;19921;-85
2020/12/30 03:57:25;;;;;;;;;;;3.10;99.90;;;;;;5070003;28;19959;-86
2020/12/30 03:59:51;;;;;;;;;;;3.10;99.90;;;;;;5071418;28;19925;-86
2020/12/30 04:02:17;;;;;;;;;;;3.10;99.90;;;;;;5071923;28;19956;-85
2020/12/30 04:04:42;;;;;;;;;;;3.00;99.90;;;;;;5069886;28;19916;-89
2020/12/30 04:07:08;;;;;;;;;;;3.00;99.90;;;;;;5070284;28;20400;-86
2020/12/30 04:09:33;;;;;;;;;;;3.00;99.90;;;;;;5083088;28;19927;-85
2020/12/30 04:11:59;;;;;;;;;;;3.00;99.90;;;;;;5090876;28;19920;-85
2020/12/30 04:14:25;;;;;;;;;;;3.00;99.90;;;;;;5075533;28;19920;-89
2020/12/30 04:16:50;;;;;;;;;;;3.10;99.90;;;;;;5077649;28;19928;-87
2020/12/30 04:19:16;;;;;;;;;;;3.00;99.90;;;;;;5093798;28;19927;-85
2020/12/30 04:21:41;;;;;;;;;;;3.00;99.90;;;;;;5076650;28;19920;-85
2020/12/30 04:24:07;;;;;;;;;;;3.00;99.90;;;;;;5093777;28;19923;-85
2020/12/30 04:26:33;;;;;;;;;;;3.00;99.90;;;;;;5093755;28;20388;-86
2020/12/30 04:28:58;;;;;;;;;;;3.00;99.90;;;;;;5094240;28;19927;-85
2020/12/30 04:31:24;;;;;;;;;;;3.10;99.90;;;;;;5093803;28;19927;-89
2020/12/30 04:33:50;;;;;;;;;;;3.10;99.90;;;;;;5076539;28;19989;-87
2020/12/30 04:36:15;;;;;;;;;;;3.10;99.90;;;;;;5093549;28;19920;-85
2020/12/30 04:38:41;;;;;;;;;;;3.20;99.90;;;;;;5076424;28;19927;-86
2020/12/30 04:41:10;;;;;;;;;;;3.20;99.90;;;;;;5093715;28;19920;-85
2020/12/30 04:43:37;;;;;;;;;;;3.20;99.90;;;;;;5092409;28;20015;-85
2020/12/30 04:46:03;;;;;;;;;;;3.20;99.90;;;;;;5061597;28;19920;-86
2020/12/30 04:48:31;;;;;;;;;;;3.20;99.90;;;;;;5093406;28;19920;-88
2020/12/30 04:50:56;;;;;;;;;;;3.20;99.90;;;;;;5093206;28;20331;-84
2020/12/30 04:53:23;;;;;;;;;;;3.30;99.90;;;;;;5093423;28;19927;-85
2020/12/30 04:55:50;;;;;;;;;;;3.30;99.90;;;;;;5077939;28;19948;-85
2020/12/30 04:58:19;;;;;;;;;;;3.30;99.90;;;;;;5073169;28;19920;-85
2020/12/30 05:00:45;;;;;;;;;;;3.30;99.90;;;;;;5072219;28;19928;-85
2020/12/30 05:03:11;;;;;;;;;;;3.30;99.90;;;;;;5074436;28;20023;-86
2020/12/30 05:05:38;;;;;;;;;;;3.30;99.90;;;;;;5073261;28;20027;-85
2020/12/30 05:08:13;;;;;;;;;;;3.30;99.90;;;;;;5056016;28;19920;-85
2020/12/30 05:10:40;;;;;;;;;;;3.40;99.90;;;;;;5073548;28;19920;-85
2020/12/30 05:13:06;;;;;;;;;;;3.40;99.90;;;;;;5073049;28;19924;-85
2020/12/30 05:15:32;;;;;;;;;;;3.40;99.90;;;;;;5072133;28;19921;-85
2020/12/30 05:17:58;;;;;;;;;;;3.40;99.90;;;;;;5056292;28;19924;-84
2020/12/30 05:20:24;;;;;;;;;;;3.40;99.90;;;;;;5073763;28;20003;-85
2020/12/30 05:22:52;;;;;;;;;;;3.40;99.90;;;;;;5055526;28;19966;-85
2020/12/30 05:25:17;;;;;;;;;;;3.50;99.90;;;;;;5087392;28;19920;-84
2020/12/30 05:27:43;;;;;;;;;;;3.50;99.90;;;;;;5092505;28;19973;-85
2020/12/30 05:30:09;;;;;;;;;;;3.50;99.90;;;;;;5071987;28;19920;-86
2020/12/30 05:32:35;;;;;;;;;;;3.50;99.90;;;;;;5054649;28;19995;-87
2020/12/30 05:35:01;;;;;;;;;;;3.50;99.90;;;;;;5073128;28;20373;-86
2020/12/30 05:37:32;;;;;;;;;;;3.50;99.90;;;;;;5072129;28;19920;-84
2020/12/30 05:39:58;;;;;;;;;;;3.50;99.90;;;;;;5071864;28;19921;-85
2020/12/30 05:42:24;;;;;;;;;;;3.50;99.90;;;;;;5073228;28;19920;-85
2020/12/30 05:44:50;;;;;;;;;;;3.50;99.90;;;;;;5078014;28;20380;-86
2020/12/30 05:47:18;;;;;;;;;;;3.50;99.90;;;;;;5081014;28;20022;-86
2020/12/30 05:49:47;;;;;;;;;;;3.50;99.90;;;;;;5070668;28;20369;-85
2020/12/30 05:52:20;;;;;;;;;;;3.50;99.90;;;;;;5070066;28;20007;-85
2020/12/30 05:54:48;;;;;;;;;;;3.50;99.90;;;;;;5071396;28;19920;-85
2020/12/30 05:57:20;;;;;;;;;;;3.50;99.90;;;;;;5090181;28;19931;-84
2020/12/30 05:59:46;;;;;;;;;;;3.50;99.90;;;;;;5091342;28;20289;-86
2020/12/30 06:02:12;;;;;;;;;;;3.50;99.90;;;;;;5074957;28;19926;-85
2020/12/30 06:04:38;;;;;;;;;;;3.50;99.90;;;;;;5092419;28;20018;-86
2020/12/30 06:07:04;;;;;;;;;;;3.50;99.90;;;;;;5074922;28;19994;-85
2020/12/30 06:09:36;;;;;;;;;;;3.60;99.90;;;;;;5074634;28;20581;-85
2020/12/30 06:12:02;;;;;;;;;;;3.60;99.90;;;;;;5091412;28;19929;-86
2020/12/30 06:14:30;;;;;;;;;;;3.60;99.90;;;;;;5091545;28;19920;-85
2020/12/30 06:16:59;;;;;;;;;;;3.60;99.90;;;;;;5091084;28;19931;-85
2020/12/30 06:19:26;;;;;;;;;;;3.60;99.90;;;;;;5092866;28;19927;-85
2020/12/30 06:21:52;;;;;;;;;;;3.70;99.90;;;;;;5092242;28;20056;-85
2020/12/30 06:24:18;;;;;;;;;;;3.60;99.90;;;;;;5091071;28;19920;-85
2020/12/30 06:26:44;;;;;;;;;;;3.60;99.90;;;;;;5072703;28;20472;-85
2020/12/30 06:29:11;;;;;;;;;;;3.60;99.90;;;;;;5071250;28;19920;-85
2020/12/30 06:31:44;;;;;;;;;;;3.60;99.90;;;;;;5071659;28;20289;-90
2020/12/30 06:34:10;;;;;;;;;;;3.60;99.90;;;;;;5118835;27;19924;-85
2020/12/30 06:36:36;;;;;;;;;;;3.70;99.90;;;;;;5098277;28;19987;-88
2020/12/30 06:39:17;;;;;;;;;;;3.70;99.90;;;;;;5112701;28;19931;-85
2020/12/30 06:41:59;;;;;;;;;;;3.60;99.90;;;;;;5112164;28;19947;-85
2020/12/30 06:44:38;;;;;;;;;;;3.60;99.90;;;;;;5094480;28;19919;-86
2020/12/30 06:47:04;;;;;;;;;;;3.60;99.90;;;;;;5078080;28;19928;-85
2020/12/30 06:49:30;;;;;;;;;;;3.60;99.90;;;;;;5092479;28;19931;-86
2020/12/30 06:51:56;;;;;;;;;;;3.60;99.90;;;;;;5091540;28;19916;-86
2020/12/30 06:54:21;;;;;;;;;;;3.60;99.90;;;;;;5074401;28;20331;-86
2020/12/30 06:56:48;;;;;;;;;;;3.60;99.90;;;;;;5057186;28;19920;-86
2020/12/30 06:59:15;;;;;;;;;;;3.60;99.90;;;;;;5092261;28;20069;-85
2020/12/30 07:01:59;;;;;;;;;;;3.60;99.90;;;;;;5057074;28;20376;-85
2020/12/30 07:04:26;;;;;;;;;;;3.60;99.90;;;;;;5091886;28;19920;-86
2020/12/30 07:06:53;;;;;;;;;;;3.60;99.90;;;;;;5091704;28;19920;-85
2020/12/30 07:09:31;;;;;;;;;;;3.60;99.90;;;;;;5092077;28;19927;-86
2020/12/30 07:12:01;;;;;;;;;;;3.60;99.90;;;;;;5077328;28;20010;-85
2020/12/30 07:14:28;;;;;;;;;;;3.50;99.90;;;;;;5074275;28;19924;-87
2020/12/30 07:16:55;;;;;;;;;;;3.60;99.90;;;;;;5073356;28;19987;-85
2020/12/30 07:19:25;;;;;;;;;;;3.50;99.90;;;;;;5091807;28;19936;-86
2020/12/30 07:21:57;;;;;;;;;;;3.50;99.90;;;;;;5056953;28;19924;-87
2020/12/30 07:24:31;;;;;;;;;;;3.50;99.90;;;;;;5091680;28;19928;-87
2020/12/30 07:26:58;;;;;;;;;;;3.50;99.90;;;;;;5103117;28;20038;-86
2020/12/30 07:29:24;;;;;;;;;;;3.50;99.90;;;;;;5093857;28;19919;-86
2020/12/30 07:31:53;;;;;;;;;;;3.50;99.90;;;;;;5089747;28;19920;-85
2020/12/30 07:34:21;;;;;;;;;;;3.50;99.90;;;;;;5091248;28;19928;-86
2020/12/30 07:36:47;;;;;;;;;;;3.50;99.90;;;;;;5090033;28;19981;-88
2020/12/30 07:39:13;;;;;;;;;;;3.50;99.90;;;;;;5090756;28;19973;-85
2020/12/30 07:41:43;;;;;;;;;;;3.50;99.90;;;;;;5089553;28;19924;-90
2020/12/30 07:44:09;;;;;;;;;;;3.50;99.90;;;;;;5091371;28;19967;-85
2020/12/30 07:46:34;;;;;;;;;;;3.50;99.90;;;;;;5089530;28;20423;-87
2020/12/30 07:49:10;;;;;;;;;;;3.50;99.90;;;;;;5078397;28;19920;-86
2020/12/30 07:51:36;;;;;;;;;;;3.50;99.90;;;;;;5093656;28;20022;-86
2020/12/30 07:54:02;;;;;;;;;;;3.60;99.90;;;;;;5095022;28;20542;-86
2020/12/30 07:56:27;;;;;;;;;;;3.50;99.90;;;;;;5086437;28;19920;-85
2020/12/30 07:58:53;;;;;;;;;;;3.40;99.90;;;;;;5073450;28;19920;-85
2020/12/30 08:01:19;;;;;;;;;;;3.40;99.90;;;;;;5075889;28;19927;-85
2020/12/30 08:03:46;;;;;;;;;;;3.40;99.90;;;;;;5074594;28;19973;-85
2020/12/30 08:06:11;;;;;;;;;;;3.50;99.90;;;;;;5085055;28;19920;-87
2020/12/30 08:08:40;;;;;;;;;;;3.50;99.90;;;;;;5093508;28;20027;-86
2020/12/30 08:11:06;;;;;;;;;;;3.50;99.90;;;;;;5093565;28;19927;-85
2020/12/30 08:13:32;;;;;;;;;;;3.50;99.90;;;;;;5076814;28;20263;-85
2020/12/30 08:15:58;;;;;;;;;;;3.50;99.90;;;;;;5092971;28;20020;-85
2020/12/30 08:18:23;;;;;;;;;;;3.60;99.90;;;;;;5094997;28;19920;-85
2020/12/30 08:20:49;;;;;;;;;;;3.60;99.90;;;;;;5091600;28;19926;-86
2020/12/30 08:23:18;;;;;;;;;;;3.60;99.90;;;;;;5074874;28;19931;-86
2020/12/30 08:26:52;;;;;;;38.85;16.40;;;3.60;99.90;;;;;;5090359;27;1601544;-83
2020/12/30 08:29:19;;;;;;;34.60;17.13;;;3.60;99.90;;;;;;5055630;28;20058;-85
2020/12/30 08:31:51;;;;;;;36.13;18.10;;;3.70;99.90;;;;;;5071526;28;20135;-87
2020/12/30 08:34:24;;;;;;;39.40;17.85;;;3.60;99.90;;;;;;5107231;28;20043;-84
2020/12/30 08:36:59;;;;;;;37.80;17.98;;;3.70;99.90;;;;;;5082351;28;20055;-84
2020/12/30 08:39:25;;;;;;;34.03;17.48;;;3.70;99.90;;;;;;5110133;28;20031;-84
2020/12/30 08:41:53;;;;;;;38.05;18.27;;;3.60;99.90;;;;;;5109982;28;20036;-84
2020/12/30 08:44:22;;;;;;;34.15;17.70;;;3.70;99.90;;;;;;5127107;28;20118;-84
2020/12/30 08:46:49;;;;;;;39.97;19.08;;;3.70;99.90;;;;;;5105875;28;20040;-87
2020/12/30 08:49:21;;;;;;;41.38;19.25;;;3.70;99.90;;;;;;5108973;28;20046;-84
2020/12/30 08:51:47;;;;;;;42.33;19.05;;;3.70;99.90;;;;;;5093716;28;20048;-89
2020/12/30 08:54:19;;;;;;;36.80;17.73;;;3.70;99.90;;;;;;5127144;28;20036;-85
2020/12/30 08:56:46;;;;;;;32.45;17.23;;;3.70;99.90;;;;;;5104958;28;20475;-85
2020/12/30 08:59:22;;;;;;;37.63;17.80;;;3.70;99.90;;;;;;5091871;28;20044;-85
2020/12/30 09:01:48;;;;;;;34.65;16.02;;;3.70;99.90;;;;;;5089579;28;20118;-88
2020/12/30 09:04:14;;;;;;;38.70;17.27;;;3.70;99.90;;;;;;5088709;28;20147;-85
2020/12/30 09:06:41;;;;;;;27.38;15.02;;;3.70;99.90;;;;;;5088998;28;20040;-85
2020/12/30 09:09:18;;;;;;;32.53;15.68;;;3.70;99.90;;;;;;5103980;28;20044;-88
2020/12/30 09:11:49;;;;;;;38.00;17.45;;;3.70;99.90;;;;;;5110496;28;20043;-86
2020/12/30 09:14:22;;;;;;;32.65;16.85;;;3.80;99.90;;;;;;5128707;28;20047;-87
2020/12/30 09:17:00;;;;;;;37.33;16.80;;;3.70;99.90;;;;;;5110260;28;20042;-88
2020/12/30 09:19:26;;;;;;;38.20;17.42;;;3.70;99.90;;;;;;5111599;28;20055;-84
2020/12/30 09:22:04;;;;;;;33.65;16.98;;;3.70;99.90;;;;;;5109234;28;20538;-87
2020/12/30 09:24:35;;;;;;;40.25;17.60;;;3.70;99.90;;;;;;5111998;28;20069;-85
2020/12/30 09:27:13;;;;;;;;;;;3.70;99.90;;;;;;5092983;28;20128;-88
2020/12/30 09:29:40;;;;;;;28.90;14.68;;;3.70;99.90;;;;;;5109820;28;20298;-83
2020/12/30 09:32:06;;;;;;;40.05;17.27;;;3.70;99.90;;;;;;5109745;28;20394;-85
2020/12/30 09:34:32;;;;;;;34.45;17.08;;;3.80;99.90;;;;;;5108963;28;20118;-86
2020/12/30 09:36:58;;;;;;;38.33;18.13;;;3.80;99.90;;;;;;5085856;28;20055;-86
2020/12/30 09:39:26;;;;;;;34.42;16.05;;;3.80;99.90;;;;;;5096075;28;20044;-85
2020/12/30 09:42:02;;;;;;;34.90;17.30;;;3.80;99.90;;;;;;5096025;28;20126;-89
2020/12/30 09:44:29;;;;;;;36.42;17.95;;;3.80;99.90;;;;;;5096067;28;20047;-84
2020/12/30 09:46:55;;;;;;;37.10;17.58;;;3.80;99.90;;;;;;5095610;28;20058;-88
2020/12/30 09:49:22;;;;;;;40.33;18.25;;;3.80;99.90;;;;;;5095886;28;20066;-85
2020/12/30 09:51:57;;;;;;;37.50;19.05;;;3.90;99.90;;;;;;5096190;28;20060;-85
2020/12/30 09:54:23;;;;;;;42.53;19.35;;;3.90;99.90;;;;;;5079204;28;20070;-85
2020/12/30 09:56:50;;;;;;;39.10;19.60;;;3.90;99.90;;;;;;5095959;28;20067;-85
2020/12/30 09:59:20;;;;;;;40.38;18.02;;;3.90;99.90;;;;;;5095646;28;20051;-85
2020/12/30 10:01:47;;;;;;;42.47;19.40;;;3.90;99.90;;;;;;5079773;28;20057;-85
2020/12/30 10:04:13;;;;;;;31.83;17.23;;;3.90;99.90;;;;;;5113723;28;20032;-85
2020/12/30 10:06:39;;;;;;;35.45;17.23;;;4.00;99.90;;;;;;5078729;28;20047;-85
2020/12/30 10:09:05;;;;;;;43.65;19.75;;;4.00;99.90;;;;;;5113485;28;20043;-85
2020/12/30 10:11:30;;;;;;;37.42;19.70;;;4.00;99.90;;;;;;5079119;28;20047;-84
2020/12/30 10:13:56;;;;;;;39.50;18.10;;;4.00;99.90;;;;;;5079004;28;20547;-89
2020/12/30 10:16:22;;;;;;;37.15;18.73;;;4.00;99.90;;;;;;5095948;28;20043;-84
2020/12/30 10:18:48;;;;;;;36.75;18.23;;;3.90;99.90;;;;;;5078928;28;20568;-85
2020/12/30 10:21:13;;;;;;;40.92;16.77;;;3.90;99.90;;;;;;5113375;28;20047;-85
2020/12/30 10:23:39;;;;;;;35.65;17.05;;;4.00;99.90;;;;;;5079000;28;20410;-84
2020/12/30 10:26:07;;;;;;;29.02;13.90;;;4.00;99.90;;;;;;5094912;28;20054;-85
2020/12/30 10:28:32;;;;;;;28.55;15.07;;;4.10;99.90;;;;;;5113704;28;20039;-84
2020/12/30 10:30:58;;;;;;;31.20;15.65;;;4.10;99.90;;;;;;5061529;28;20285;-86
2020/12/30 10:33:24;;;;;;;27.40;14.98;;;4.20;99.90;;;;;;5113472;28;20459;-84
2020/12/30 10:35:50;;;;;;;27.65;14.15;;;4.20;99.90;;;;;;5067528;28;20674;-86
2020/12/30 10:38:16;;;;;;;28.13;14.30;;;4.30;99.90;;;;;;5072271;28;20483;-84
2020/12/30 10:40:41;;;;;;;27.30;14.45;;;4.40;99.90;;;;;;5073425;28;20437;-85
2020/12/30 10:43:07;;;;;;;23.95;13.15;;;4.40;99.90;;;;;;5050273;28;20518;-85
2020/12/30 10:45:33;;;;;;;25.08;14.43;;;4.40;99.90;;;;;;5092505;28;20085;-84
2020/12/30 10:47:58;;;;;;;27.73;13.40;;;4.50;99.90;;;;;;5110505;28;20047;-87
2020/12/30 10:50:24;;;;;;;22.85;13.63;;;4.50;99.90;;;;;;5075657;28;20039;-85
2020/12/30 10:52:51;;;;;;;25.42;12.85;;;4.60;99.90;;;;;;5060219;28;20113;-85
2020/12/30 10:55:17;;;;;;;24.52;13.25;;;4.70;99.90;;;;;;5076215;28;20035;-85
2020/12/30 10:57:43;;;;;;;23.17;12.95;;;4.60;99.90;;;;;;5075684;28;20380;-86
2020/12/30 11:00:09;;;;;;;24.08;13.98;;;4.70;99.90;;;;;;5071535;28;20130;-85
2020/12/30 11:02:34;;;;;;;22.85;12.65;;;4.70;99.90;;;;;;5071441;28;20467;-84
2020/12/30 11:05:00;;;;;;;21.77;13.50;;;4.70;99.90;;;;;;5074598;28;20403;-90
2020/12/30 11:07:26;;;;;;;27.60;14.75;;;4.70;99.90;;;;;;5075662;28;20128;-87
2020/12/30 11:09:52;;;;;;;22.38;12.27;;;4.70;99.90;;;;;;5074596;28;20051;-85
2020/12/30 11:12:17;;;;;;;24.55;13.18;;;4.70;99.90;;;;;;5073693;28;20040;-84
2020/12/30 11:14:43;;;;;;;27.15;13.32;;;4.80;99.90;;;;;;5073903;28;20083;-85
2020/12/30 11:17:09;;;;;;;27.27;13.98;;;4.80;99.90;;;;;;5073058;28;20048;-85
2020/12/30 11:19:34;;;;;;;19.83;13.10;;;4.90;99.90;;;;;;5073857;28;20043;-86
2020/12/30 11:22:00;;;;;;;22.88;12.32;;;4.90;99.90;;;;;;5090775;28;20051;-88
2020/12/30 11:24:26;;;;;;;26.00;13.60;;;5.00;99.90;;;;;;5077074;28;20142;-84
2020/12/30 11:26:52;;;;;;;19.33;11.73;;;5.00;99.90;;;;;;5074117;28;20059;-85
2020/12/30 11:29:17;;;;;;;19.92;12.77;;;5.00;99.90;;;;;;5084830;28;20036;-84
2020/12/30 11:31:44;;;;;;;19.40;12.98;;;5.00;99.90;;;;;;5092933;28;20066;-85
2020/12/30 11:34:11;;;;;;;26.70;13.25;;;5.00;99.90;;;;;;5110342;28;20523;-87
2020/12/30 11:36:37;;;;;;;27.35;14.05;;;5.10;99.90;;;;;;5091486;28;20039;-86
2020/12/30 11:39:04;;;;;;;25.23;14.27;;;5.10;99.90;;;;;;5091849;28;20051;-89
2020/12/30 11:41:29;;;;;;;23.42;12.30;;;5.10;99.90;;;;;;5075961;28;20043;-86
2020/12/30 11:43:55;;;;;;;26.08;13.98;;;5.20;99.90;;;;;;5075792;28;20376;-87
2020/12/30 11:46:25;;;;;;;25.33;13.88;;;5.10;99.90;;;;;;5075045;28;20756;-88
2020/12/30 11:48:53;;;;;;;26.52;14.70;;;5.10;99.90;;;;;;5092440;28;20051;-90
2020/12/30 11:51:19;;;;;;;23.58;13.40;;;5.20;99.90;;;;;;5090332;28;20043;-87
2020/12/30 11:53:45;;;;;;;23.10;12.88;;;5.20;99.90;;;;;;5073961;28;20130;-88
2020/12/30 11:56:18;;;;;;;20.90;13.40;;;5.20;99.90;;;;;;5089240;28;20058;-89
2020/12/30 11:58:44;;;;;;;16.75;11.15;;;5.30;99.90;;;;;;5091132;28;20059;-88
2020/12/30 12:01:10;;;;;;;20.52;13.30;;;5.30;99.90;;;;;;5058188;28;20047;-87
2020/12/30 12:03:36;;;;;;;21.65;13.45;;;5.40;99.90;;;;;;5075500;28;20496;-88
2020/12/30 12:06:01;;;;;;;23.90;13.75;;;5.40;99.90;;;;;;5075462;28;20046;-87
2020/12/30 12:08:27;;;;;;;20.35;12.20;;;5.40;99.90;;;;;;5092423;28;20036;-88
2020/12/30 12:10:53;;;;;;;24.90;12.52;;;5.40;99.90;;;;;;5076269;28;20040;-88
2020/12/30 12:13:18;;;;;;;20.45;13.23;;;5.50;99.90;;;;;;5074966;28;20486;-87
2020/12/30 12:15:44;;;;;;;19.17;13.02;;;5.50;99.90;;;;;;5092618;28;20588;-88
2020/12/30 12:18:10;;;;;;;24.02;13.65;;;5.50;99.90;;;;;;5109925;28;20380;-89
2020/12/30 12:20:35;;;;;;;26.05;14.13;;;5.60;99.90;;;;;;5042685;28;20495;-88
2020/12/30 12:23:03;;;;;;;19.25;12.27;;;5.60;99.90;;;;;;5075867;28;20043;-87
2020/12/30 12:25:30;;;;;;;21.75;12.77;;;5.70;99.90;;;;;;5074937;28;20048;-88
2020/12/30 12:27:55;;;;;;;21.88;13.27;;;5.80;99.90;;;;;;5092556;28;20051;-88
2020/12/30 12:30:21;;;;;;;14.80;11.65;;;5.80;99.90;;;;;;5110093;28;20035;-88
2020/12/30 12:32:47;;;;;;;18.90;11.93;;;5.80;99.90;;;;;;5074956;28;20058;-88
2020/12/30 12:35:13;;;;;;;16.00;10.13;;;5.90;99.90;;;;;;5070806;28;20406;-88
2020/12/30 12:37:39;;;;;;;16.73;11.68;;;5.90;99.90;;;;;;5071894;28;20040;-89
2020/12/30 12:40:05;;;;;;;18.35;12.82;;;6.00;99.90;;;;;;5072348;28;20407;-87
2020/12/30 12:42:30;;;;;;;22.95;12.45;;;6.00;99.90;;;;;;5089604;28;20226;-88
2020/12/30 12:44:56;;;;;;;21.73;12.35;;;6.10;99.90;;;;;;5090244;28;20430;-88
2020/12/30 12:47:22;;;;;;;19.75;12.73;;;6.10;99.90;;;;;;5071802;28;20377;-88
2020/12/30 12:49:47;;;;;;;15.35;11.68;;;6.10;99.90;;;;;;5075497;28;20443;-88
2020/12/30 12:52:13;;;;;;;19.38;11.25;;;6.30;99.90;;;;;;5058094;28;20100;-88
2020/12/30 12:54:39;;;;;;;13.50;10.20;;;6.20;99.90;;;;;;5092393;28;20475;-88
2020/12/30 12:57:06;;;;;;;14.15;8.75;;;6.40;99.90;;;;;;5075455;28;20075;-88
2020/12/30 12:59:33;;;;;;;15.60;9.13;;;6.40;99.90;;;;;;5109621;28;20091;-88
2020/12/30 13:02:00;;;;;;;10.38;8.85;;;6.40;99.90;;;;;;5092073;28;20048;-88
2020/12/30 13:04:26;;;;;;;15.25;8.57;;;6.50;99.90;;;;;;5091556;28;20047;-88
2020/12/30 13:06:52;;;;;;;11.45;7.88;;;6.50;99.90;;;;;;5074756;28;20104;-88
2020/12/30 13:09:18;;;;;;;12.52;8.27;;;6.60;99.90;;;;;;5074495;28;20543;-87
2020/12/30 13:11:49;;;;;;;10.88;7.82;;;6.70;99.90;;;;;;5093006;28;20534;-87
2020/12/30 13:14:16;;;;;;;8.05;6.32;;;6.80;99.90;;;;;;5113373;28;20043;-88
2020/12/30 13:16:50;;;;;;;12.48;6.45;;;6.80;99.90;;;;;;5113727;28;20044;-87
2020/12/30 13:19:16;;;;;;;11.02;6.22;;;6.80;99.90;;;;;;5095117;28;20050;-88
2020/12/30 13:21:43;;;;;;;10.85;6.18;;;6.70;99.90;;;;;;5113995;28;20233;-88
2020/12/30 13:24:09;;;;;;;9.27;6.20;;;6.70;99.90;;;;;;5078894;28;20048;-88
2020/12/30 13:26:35;;;;;;;7.90;6.18;;;6.80;99.90;;;;;;5077251;28;20044;-88
2020/12/30 13:29:01;;;;;;;10.27;6.95;;;6.80;99.90;;;;;;5095561;28;20035;-88
2020/12/30 13:31:27;;;;;;;11.75;7.22;;;6.90;99.90;;;;;;5094642;28;20172;-89
2020/12/30 13:33:53;;;;;;;9.55;7.13;;;7.00;99.90;;;;;;5094990;28;20497;-88
2020/12/30 13:36:21;;;;;;;12.50;6.75;;;7.00;99.90;;;;;;5094554;28;20044;-89
2020/12/30 13:38:47;;;;;;;10.52;6.70;;;7.00;99.90;;;;;;5113336;28;20055;-87
2020/12/30 13:41:13;;;;;;;10.82;6.13;;;7.00;99.90;;;;;;5095472;28;20035;-88
2020/12/30 13:43:38;;;;;;;6.38;5.28;;;7.00;99.90;;;;;;5061303;28;20465;-89